sensor_id;sensor_type;location;lat;lon;timestamp;P1;durP1;ratioP1;P2;durP2;ratioP2
25381;SDS011;16307;42.896;20.874;2023-10-13T00:00:56;11.73;;;6.35;;
25381;SDS011;16307;42.896;20.874;2023-10-13T00:03:45;9.43;;;5.70;;
25381;SDS011;16307;42.896;20.874;2023-10-13T00:06:31;12.10;;;5.70;;
25381;SDS011;16307;42.896;20.874;2023-10-13T00:09:17;13.27;;;6.05;;
25381;SDS011;16307;42.896;20.874;2023-10-13T00:12:06;9.55;;;5.22;;
25381;SDS011;16307;42.896;20.874;2023-10-13T00:14:59;12.05;;;5.68;;
25381;SDS011;16307;42.896;20.874;2023-10-13T00:17:49;11.80;;;5.35;;
25381;SDS011;16307;42.896;20.874;2023-10-13T00:20:35;12.73;;;6.20;;
25381;SDS011;16307;42.896;20.874;2023-10-13T00:23:23;11.10;;;5.82;;
25381;SDS011;16307;42.896;20.874;2023-10-13T00:26:13;11.25;;;6.25;;
25381;SDS011;16307;42.896;20.874;2023-10-13T00:29:08;9.57;;;5.47;;
25381;SDS011;16307;42.896;20.874;2023-10-13T00:31:55;12.00;;;5.63;;
25381;SDS011;16307;42.896;20.874;2023-10-13T00:34:41;11.70;;;5.30;;
25381;SDS011;16307;42.896;20.874;2023-10-13T00:37:27;11.38;;;5.75;;
25381;SDS011;16307;42.896;20.874;2023-10-13T00:40:14;12.63;;;5.65;;
25381;SDS011;16307;42.896;20.874;2023-10-13T00:43:21;11.38;;;5.28;;
25381;SDS011;16307;42.896;20.874;2023-10-13T00:46:08;12.50;;;6.25;;
25381;SDS011;16307;42.896;20.874;2023-10-13T00:48:55;9.40;;;5.13;;
25381;SDS011;16307;42.896;20.874;2023-10-13T00:51:42;11.93;;;5.05;;
25381;SDS011;16307;42.896;20.874;2023-10-13T00:54:34;8.45;;;5.40;;
25381;SDS011;16307;42.896;20.874;2023-10-13T00:57:23;9.63;;;5.78;;
25381;SDS011;16307;42.896;20.874;2023-10-13T01:00:12;10.88;;;5.95;;
25381;SDS011;16307;42.896;20.874;2023-10-13T01:03:19;9.52;;;5.45;;
25381;SDS011;16307;42.896;20.874;2023-10-13T01:06:12;7.95;;;5.18;;
25381;SDS011;16307;42.896;20.874;2023-10-13T01:09:05;11.07;;;4.93;;
25381;SDS011;16307;42.896;20.874;2023-10-13T01:12:00;9.70;;;5.20;;
25381;SDS011;16307;42.896;20.874;2023-10-13T01:14:46;9.73;;;5.65;;
25381;SDS011;16307;42.896;20.874;2023-10-13T01:17:33;10.75;;;5.10;;
25381;SDS011;16307;42.896;20.874;2023-10-13T01:20:19;8.40;;;5.00;;
25381;SDS011;16307;42.896;20.874;2023-10-13T01:23:12;9.27;;;4.88;;
25381;SDS011;16307;42.896;20.874;2023-10-13T01:26:04;9.95;;;5.40;;
25381;SDS011;16307;42.896;20.874;2023-10-13T01:28:51;8.77;;;5.18;;
25381;SDS011;16307;42.896;20.874;2023-10-13T01:31:44;9.65;;;5.03;;
25381;SDS011;16307;42.896;20.874;2023-10-13T01:34:33;11.60;;;5.00;;
25381;SDS011;16307;42.896;20.874;2023-10-13T01:37:19;12.05;;;5.35;;
25381;SDS011;16307;42.896;20.874;2023-10-13T01:40:05;8.48;;;5.00;;
25381;SDS011;16307;42.896;20.874;2023-10-13T01:42:52;9.52;;;4.75;;
25381;SDS011;16307;42.896;20.874;2023-10-13T01:45:41;9.30;;;5.03;;
25381;SDS011;16307;42.896;20.874;2023-10-13T01:48:35;10.25;;;5.13;;
25381;SDS011;16307;42.896;20.874;2023-10-13T01:51:26;9.55;;;5.05;;
25381;SDS011;16307;42.896;20.874;2023-10-13T01:54:13;10.57;;;4.70;;
25381;SDS011;16307;42.896;20.874;2023-10-13T01:57:02;10.98;;;5.18;;
25381;SDS011;16307;42.896;20.874;2023-10-13T01:59:50;8.10;;;5.00;;
25381;SDS011;16307;42.896;20.874;2023-10-13T02:02:36;8.40;;;4.78;;
25381;SDS011;16307;42.896;20.874;2023-10-13T02:05:30;7.55;;;4.57;;
25381;SDS011;16307;42.896;20.874;2023-10-13T02:08:21;8.68;;;5.20;;
25381;SDS011;16307;42.896;20.874;2023-10-13T02:11:12;8.70;;;4.75;;
25381;SDS011;16307;42.896;20.874;2023-10-13T02:13:58;11.73;;;5.30;;
25381;SDS011;16307;42.896;20.874;2023-10-13T02:16:46;8.23;;;5.22;;
25381;SDS011;16307;42.896;20.874;2023-10-13T02:19:33;8.15;;;4.78;;
25381;SDS011;16307;42.896;20.874;2023-10-13T02:22:19;9.57;;;5.30;;
25381;SDS011;16307;42.896;20.874;2023-10-13T02:25:16;9.30;;;4.88;;
25381;SDS011;16307;42.896;20.874;2023-10-13T02:28:28;11.02;;;4.97;;
25381;SDS011;16307;42.896;20.874;2023-10-13T02:31:19;8.90;;;5.18;;
25381;SDS011;16307;42.896;20.874;2023-10-13T02:34:10;16.20;;;5.88;;
25381;SDS011;16307;42.896;20.874;2023-10-13T02:36:58;8.35;;;5.10;;
25381;SDS011;16307;42.896;20.874;2023-10-13T02:39:44;9.25;;;5.10;;
25381;SDS011;16307;42.896;20.874;2023-10-13T02:42:31;9.30;;;4.55;;
25381;SDS011;16307;42.896;20.874;2023-10-13T02:45:17;11.30;;;5.13;;
25381;SDS011;16307;42.896;20.874;2023-10-13T02:48:08;10.60;;;4.82;;
25381;SDS011;16307;42.896;20.874;2023-10-13T02:51:03;9.43;;;4.80;;
25381;SDS011;16307;42.896;20.874;2023-10-13T02:53:52;9.68;;;5.60;;
25381;SDS011;16307;42.896;20.874;2023-10-13T02:56:39;10.88;;;4.65;;
25381;SDS011;16307;42.896;20.874;2023-10-13T02:59:44;8.88;;;4.90;;
25381;SDS011;16307;42.896;20.874;2023-10-13T03:02:33;10.55;;;4.60;;
25381;SDS011;16307;42.896;20.874;2023-10-13T03:05:27;10.77;;;4.90;;
25381;SDS011;16307;42.896;20.874;2023-10-13T03:08:17;7.68;;;4.60;;
25381;SDS011;16307;42.896;20.874;2023-10-13T03:11:13;10.38;;;4.90;;
25381;SDS011;16307;42.896;20.874;2023-10-13T03:13:59;11.63;;;5.18;;
25381;SDS011;16307;42.896;20.874;2023-10-13T03:16:52;11.63;;;5.15;;
25381;SDS011;16307;42.896;20.874;2023-10-13T03:19:43;9.80;;;5.30;;
25381;SDS011;16307;42.896;20.874;2023-10-13T03:22:36;11.32;;;5.28;;
25381;SDS011;16307;42.896;20.874;2023-10-13T03:25:22;10.40;;;4.88;;
25381;SDS011;16307;42.896;20.874;2023-10-13T03:28:28;9.15;;;5.43;;
25381;SDS011;16307;42.896;20.874;2023-10-13T03:31:20;9.00;;;4.72;;
25381;SDS011;16307;42.896;20.874;2023-10-13T03:34:08;7.47;;;4.55;;
25381;SDS011;16307;42.896;20.874;2023-10-13T03:36:58;9.07;;;4.78;;
25381;SDS011;16307;42.896;20.874;2023-10-13T03:39:45;9.52;;;5.00;;
25381;SDS011;16307;42.896;20.874;2023-10-13T03:42:31;9.20;;;4.90;;
25381;SDS011;16307;42.896;20.874;2023-10-13T03:45:18;10.57;;;4.90;;
25381;SDS011;16307;42.896;20.874;2023-10-13T03:48:07;7.25;;;4.43;;
25381;SDS011;16307;42.896;20.874;2023-10-13T03:51:07;10.93;;;5.22;;
25381;SDS011;16307;42.896;20.874;2023-10-13T03:53:53;7.90;;;4.30;;
25381;SDS011;16307;42.896;20.874;2023-10-13T03:56:40;14.00;;;4.90;;
25381;SDS011;16307;42.896;20.874;2023-10-13T03:59:26;10.38;;;5.10;;
25381;SDS011;16307;42.896;20.874;2023-10-13T04:02:20;13.52;;;5.40;;
25381;SDS011;16307;42.896;20.874;2023-10-13T04:05:09;8.43;;;4.70;;
25381;SDS011;16307;42.896;20.874;2023-10-13T04:08:04;6.82;;;4.40;;
25381;SDS011;16307;42.896;20.874;2023-10-13T04:11:09;10.15;;;5.18;;
25381;SDS011;16307;42.896;20.874;2023-10-13T04:14:16;10.52;;;5.43;;
25381;SDS011;16307;42.896;20.874;2023-10-13T04:17:31;8.98;;;5.28;;
25381;SDS011;16307;42.896;20.874;2023-10-13T04:20:26;8.05;;;5.07;;
25381;SDS011;16307;42.896;20.874;2023-10-13T04:23:18;9.03;;;5.13;;
25381;SDS011;16307;42.896;20.874;2023-10-13T04:26:08;8.55;;;4.97;;
25381;SDS011;16307;42.896;20.874;2023-10-13T04:29:07;9.10;;;4.85;;
25381;SDS011;16307;42.896;20.874;2023-10-13T04:32:13;9.73;;;4.95;;
25381;SDS011;16307;42.896;20.874;2023-10-13T04:35:01;10.05;;;4.43;;
25381;SDS011;16307;42.896;20.874;2023-10-13T04:37:59;16.40;;;6.03;;
25381;SDS011;16307;42.896;20.874;2023-10-13T04:41:03;10.85;;;5.03;;
25381;SDS011;16307;42.896;20.874;2023-10-13T04:43:55;20.87;;;6.33;;
25381;SDS011;16307;42.896;20.874;2023-10-13T04:46:42;9.23;;;4.90;;
25381;SDS011;16307;42.896;20.874;2023-10-13T04:49:43;9.98;;;5.70;;
25381;SDS011;16307;42.896;20.874;2023-10-13T04:52:32;12.30;;;5.65;;
25381;SDS011;16307;42.896;20.874;2023-10-13T04:55:46;12.00;;;5.90;;
25381;SDS011;16307;42.896;20.874;2023-10-13T04:58:49;10.77;;;5.93;;
25381;SDS011;16307;42.896;20.874;2023-10-13T05:02:05;12.60;;;5.53;;
25381;SDS011;16307;42.896;20.874;2023-10-13T05:05:10;10.07;;;5.03;;
25381;SDS011;16307;42.896;20.874;2023-10-13T05:08:04;13.05;;;5.95;;
25381;SDS011;16307;42.896;20.874;2023-10-13T05:11:08;13.50;;;6.45;;
25381;SDS011;16307;42.896;20.874;2023-10-13T05:14:13;11.77;;;6.10;;
25381;SDS011;16307;42.896;20.874;2023-10-13T05:17:18;14.82;;;6.80;;
25381;SDS011;16307;42.896;20.874;2023-10-13T05:20:22;13.10;;;6.72;;
25381;SDS011;16307;42.896;20.874;2023-10-13T05:23:27;19.63;;;8.07;;
25381;SDS011;16307;42.896;20.874;2023-10-13T05:26:32;22.75;;;7.38;;
25381;SDS011;16307;42.896;20.874;2023-10-13T05:29:40;20.88;;;7.72;;
25381;SDS011;16307;42.896;20.874;2023-10-13T05:32:45;25.52;;;8.02;;
25381;SDS011;16307;42.896;20.874;2023-10-13T05:35:50;22.55;;;9.85;;
25381;SDS011;16307;42.896;20.874;2023-10-13T05:38:54;16.13;;;9.10;;
25381;SDS011;16307;42.896;20.874;2023-10-13T05:41:59;17.15;;;8.70;;
25381;SDS011;16307;42.896;20.874;2023-10-13T05:45:21;16.30;;;6.97;;
25381;SDS011;16307;42.896;20.874;2023-10-13T05:48:25;18.73;;;7.43;;
25381;SDS011;16307;42.896;20.874;2023-10-13T05:54:18;17.45;;;7.00;;
25381;SDS011;16307;42.896;20.874;2023-10-13T05:57:23;18.40;;;8.45;;
25381;SDS011;16307;42.896;20.874;2023-10-13T06:00:28;16.85;;;7.60;;
25381;SDS011;16307;42.896;20.874;2023-10-13T06:03:32;25.95;;;7.90;;
25381;SDS011;16307;42.896;20.874;2023-10-13T06:06:37;12.02;;;6.90;;
25381;SDS011;16307;42.896;20.874;2023-10-13T06:09:42;14.35;;;6.35;;
25381;SDS011;16307;42.896;20.874;2023-10-13T06:12:48;10.70;;;5.80;;
25381;SDS011;16307;42.896;20.874;2023-10-13T06:15:53;13.38;;;6.10;;
25381;SDS011;16307;42.896;20.874;2023-10-13T06:18:58;14.02;;;7.95;;
25381;SDS011;16307;42.896;20.874;2023-10-13T06:22:04;16.33;;;7.28;;
25381;SDS011;16307;42.896;20.874;2023-10-13T06:25:09;16.70;;;8.57;;
25381;SDS011;16307;42.896;20.874;2023-10-13T06:28:14;13.20;;;6.85;;
25381;SDS011;16307;42.896;20.874;2023-10-13T06:31:18;13.10;;;5.65;;
25381;SDS011;16307;42.896;20.874;2023-10-13T06:34:08;16.20;;;6.40;;
25381;SDS011;16307;42.896;20.874;2023-10-13T06:36:54;14.98;;;6.70;;
25381;SDS011;16307;42.896;20.874;2023-10-13T06:39:40;15.20;;;6.53;;
25381;SDS011;16307;42.896;20.874;2023-10-13T06:42:27;15.85;;;6.47;;
25381;SDS011;16307;42.896;20.874;2023-10-13T06:45:13;15.52;;;6.55;;
25381;SDS011;16307;42.896;20.874;2023-10-13T06:48:02;13.20;;;6.20;;
25381;SDS011;16307;42.896;20.874;2023-10-13T06:50:50;15.35;;;6.15;;
25381;SDS011;16307;42.896;20.874;2023-10-13T06:53:41;17.40;;;7.22;;
25381;SDS011;16307;42.896;20.874;2023-10-13T06:56:32;12.20;;;6.18;;
25381;SDS011;16307;42.896;20.874;2023-10-13T06:59:18;14.80;;;7.22;;
25381;SDS011;16307;42.896;20.874;2023-10-13T07:02:05;16.48;;;7.97;;
25381;SDS011;16307;42.896;20.874;2023-10-13T07:05:12;13.82;;;6.85;;
25381;SDS011;16307;42.896;20.874;2023-10-13T07:08:00;13.35;;;6.25;;
25381;SDS011;16307;42.896;20.874;2023-10-13T07:10:50;13.75;;;7.28;;
25381;SDS011;16307;42.896;20.874;2023-10-13T07:13:53;14.75;;;6.93;;
25381;SDS011;16307;42.896;20.874;2023-10-13T07:16:43;15.32;;;7.72;;
25381;SDS011;16307;42.896;20.874;2023-10-13T07:19:33;16.58;;;6.50;;
25381;SDS011;16307;42.896;20.874;2023-10-13T07:22:22;13.77;;;6.35;;
25381;SDS011;16307;42.896;20.874;2023-10-13T07:25:08;16.33;;;6.80;;
25381;SDS011;16307;42.896;20.874;2023-10-13T07:27:55;14.60;;;6.10;;
25381;SDS011;16307;42.896;20.874;2023-10-13T07:30:43;19.00;;;6.80;;
25381;SDS011;16307;42.896;20.874;2023-10-13T07:33:40;12.98;;;6.50;;
25381;SDS011;16307;42.896;20.874;2023-10-13T07:36:27;15.20;;;6.15;;
25381;SDS011;16307;42.896;20.874;2023-10-13T07:39:18;17.00;;;6.43;;
25381;SDS011;16307;42.896;20.874;2023-10-13T07:42:09;12.45;;;6.28;;
25381;SDS011;16307;42.896;20.874;2023-10-13T07:45:16;13.70;;;6.60;;
25381;SDS011;16307;42.896;20.874;2023-10-13T07:48:11;13.73;;;6.78;;
25381;SDS011;16307;42.896;20.874;2023-10-13T07:51:07;13.80;;;6.55;;
25381;SDS011;16307;42.896;20.874;2023-10-13T07:53:57;14.27;;;6.55;;
25381;SDS011;16307;42.896;20.874;2023-10-13T07:56:43;16.45;;;6.28;;
25381;SDS011;16307;42.896;20.874;2023-10-13T07:59:29;14.45;;;5.60;;
25381;SDS011;16307;42.896;20.874;2023-10-13T08:02:15;20.13;;;6.70;;
25381;SDS011;16307;42.896;20.874;2023-10-13T08:05:21;19.88;;;7.40;;
25381;SDS011;16307;42.896;20.874;2023-10-13T08:08:15;18.20;;;6.45;;
25381;SDS011;16307;42.896;20.874;2023-10-13T08:11:01;14.90;;;7.05;;
25381;SDS011;16307;42.896;20.874;2023-10-13T08:13:55;16.67;;;6.38;;
25381;SDS011;16307;42.896;20.874;2023-10-13T08:16:54;14.45;;;6.13;;
25381;SDS011;16307;42.896;20.874;2023-10-13T08:19:40;16.58;;;8.10;;
25381;SDS011;16307;42.896;20.874;2023-10-13T08:22:33;23.65;;;8.75;;
25381;SDS011;16307;42.896;20.874;2023-10-13T08:25:24;14.95;;;6.70;;
25381;SDS011;16307;42.896;20.874;2023-10-13T08:28:30;15.18;;;6.53;;
25381;SDS011;16307;42.896;20.874;2023-10-13T08:31:41;16.83;;;6.90;;
25381;SDS011;16307;42.896;20.874;2023-10-13T08:34:28;25.40;;;8.38;;
25381;SDS011;16307;42.896;20.874;2023-10-13T08:37:24;27.92;;;7.82;;
25381;SDS011;16307;42.896;20.874;2023-10-13T08:40:12;19.77;;;7.00;;
25381;SDS011;16307;42.896;20.874;2023-10-13T08:43:18;23.98;;;6.85;;
25381;SDS011;16307;42.896;20.874;2023-10-13T08:46:03;15.13;;;7.10;;
25381;SDS011;16307;42.896;20.874;2023-10-13T08:48:53;12.15;;;5.93;;
25381;SDS011;16307;42.896;20.874;2023-10-13T08:51:50;18.00;;;5.63;;
25381;SDS011;16307;42.896;20.874;2023-10-13T08:54:36;13.18;;;5.28;;
25381;SDS011;16307;42.896;20.874;2023-10-13T08:57:32;17.55;;;5.38;;
25381;SDS011;16307;42.896;20.874;2023-10-13T09:00:21;14.98;;;4.88;;
25381;SDS011;16307;42.896;20.874;2023-10-13T09:03:14;18.90;;;6.85;;
25381;SDS011;16307;42.896;20.874;2023-10-13T09:06:16;15.05;;;7.85;;
25381;SDS011;16307;42.896;20.874;2023-10-13T09:09:08;14.45;;;5.60;;
25381;SDS011;16307;42.896;20.874;2023-10-13T09:11:54;16.75;;;5.10;;
25381;SDS011;16307;42.896;20.874;2023-10-13T09:14:56;11.05;;;4.78;;
25381;SDS011;16307;42.896;20.874;2023-10-13T09:20:38;14.10;;;6.20;;
25381;SDS011;16307;42.896;20.874;2023-10-13T09:23:24;11.07;;;5.68;;
25381;SDS011;16307;42.896;20.874;2023-10-13T09:26:10;16.95;;;6.22;;
25381;SDS011;16307;42.896;20.874;2023-10-13T09:28:58;15.63;;;5.85;;
25381;SDS011;16307;42.896;20.874;2023-10-13T09:31:46;16.13;;;5.70;;
25381;SDS011;16307;42.896;20.874;2023-10-13T09:34:34;10.40;;;4.55;;
25381;SDS011;16307;42.896;20.874;2023-10-13T09:37:26;10.25;;;4.55;;
25381;SDS011;16307;42.896;20.874;2023-10-13T09:40:17;13.32;;;4.88;;
25381;SDS011;16307;42.896;20.874;2023-10-13T09:43:18;10.85;;;4.75;;
25381;SDS011;16307;42.896;20.874;2023-10-13T09:46:05;10.52;;;4.90;;
25381;SDS011;16307;42.896;20.874;2023-10-13T09:48:54;13.70;;;5.57;;
25381;SDS011;16307;42.896;20.874;2023-10-13T09:51:50;9.13;;;4.30;;
25381;SDS011;16307;42.896;20.874;2023-10-13T09:54:43;12.35;;;3.88;;
25381;SDS011;16307;42.896;20.874;2023-10-13T09:57:34;10.35;;;4.18;;
25381;SDS011;16307;42.896;20.874;2023-10-13T10:00:21;9.88;;;4.03;;
25381;SDS011;16307;42.896;20.874;2023-10-13T10:03:14;7.53;;;3.75;;
25381;SDS011;16307;42.896;20.874;2023-10-13T10:06:01;12.52;;;3.42;;
25381;SDS011;16307;42.896;20.874;2023-10-13T10:09:11;7.78;;;3.75;;
25381;SDS011;16307;42.896;20.874;2023-10-13T10:12:06;8.55;;;4.68;;
25381;SDS011;16307;42.896;20.874;2023-10-13T10:18:30;17.17;;;5.50;;
25381;SDS011;16307;42.896;20.874;2023-10-13T10:21:16;13.60;;;4.97;;
25381;SDS011;16307;42.896;20.874;2023-10-13T10:24:15;14.65;;;5.40;;
25381;SDS011;16307;42.896;20.874;2023-10-13T10:27:09;12.40;;;5.40;;
25381;SDS011;16307;42.896;20.874;2023-10-13T10:30:00;16.52;;;3.95;;
25381;SDS011;16307;42.896;20.874;2023-10-13T10:32:53;13.18;;;4.88;;
25381;SDS011;16307;42.896;20.874;2023-10-13T10:35:45;8.95;;;3.92;;
25381;SDS011;16307;42.896;20.874;2023-10-13T10:38:32;23.70;;;9.73;;
25381;SDS011;16307;42.896;20.874;2023-10-13T10:41:24;18.48;;;8.20;;
25381;SDS011;16307;42.896;20.874;2023-10-13T10:44:15;11.48;;;5.22;;
25381;SDS011;16307;42.896;20.874;2023-10-13T10:50:24;16.42;;;5.68;;
25381;SDS011;16307;42.896;20.874;2023-10-13T10:53:21;13.93;;;6.65;;
25381;SDS011;16307;42.896;20.874;2023-10-13T10:56:28;13.85;;;4.82;;
25381;SDS011;16307;42.896;20.874;2023-10-13T10:59:21;14.20;;;5.78;;
25381;SDS011;16307;42.896;20.874;2023-10-13T11:02:10;17.25;;;5.40;;
25381;SDS011;16307;42.896;20.874;2023-10-13T11:05:01;10.73;;;3.92;;
25381;SDS011;16307;42.896;20.874;2023-10-13T11:07:47;14.10;;;4.75;;
25381;SDS011;16307;42.896;20.874;2023-10-13T11:10:45;14.85;;;5.28;;
25381;SDS011;16307;42.896;20.874;2023-10-13T11:13:44;11.48;;;4.72;;
25381;SDS011;16307;42.896;20.874;2023-10-13T11:16:37;13.88;;;4.65;;
25381;SDS011;16307;42.896;20.874;2023-10-13T11:19:36;13.82;;;4.78;;
25381;SDS011;16307;42.896;20.874;2023-10-13T11:22:24;10.38;;;3.58;;
25381;SDS011;16307;42.896;20.874;2023-10-13T11:25:23;14.20;;;4.20;;
25381;SDS011;16307;42.896;20.874;2023-10-13T11:28:20;11.30;;;4.65;;
25381;SDS011;16307;42.896;20.874;2023-10-13T11:31:13;20.77;;;4.55;;
25381;SDS011;16307;42.896;20.874;2023-10-13T11:34:05;13.10;;;4.93;;
25381;SDS011;16307;42.896;20.874;2023-10-13T11:36:51;16.08;;;6.05;;
25381;SDS011;16307;42.896;20.874;2023-10-13T11:39:38;30.48;;;8.85;;
25381;SDS011;16307;42.896;20.874;2023-10-13T11:42:27;14.45;;;5.00;;
25381;SDS011;16307;42.896;20.874;2023-10-13T11:45:13;11.38;;;4.63;;
25381;SDS011;16307;42.896;20.874;2023-10-13T11:48:16;15.02;;;4.88;;
25381;SDS011;16307;42.896;20.874;2023-10-13T11:51:03;16.67;;;6.70;;
25381;SDS011;16307;42.896;20.874;2023-10-13T11:53:53;16.73;;;8.05;;
25381;SDS011;16307;42.896;20.874;2023-10-13T11:56:39;15.68;;;5.65;;
25381;SDS011;16307;42.896;20.874;2023-10-13T11:59:26;13.43;;;6.28;;
25381;SDS011;16307;42.896;20.874;2023-10-13T12:02:13;15.23;;;7.30;;
25381;SDS011;16307;42.896;20.874;2023-10-13T12:05:12;13.90;;;6.90;;
25381;SDS011;16307;42.896;20.874;2023-10-13T12:07:58;15.57;;;6.72;;
25381;SDS011;16307;42.896;20.874;2023-10-13T12:10:49;16.75;;;6.78;;
25381;SDS011;16307;42.896;20.874;2023-10-13T12:13:45;13.70;;;6.63;;
25381;SDS011;16307;42.896;20.874;2023-10-13T12:16:32;16.98;;;5.80;;
25381;SDS011;16307;42.896;20.874;2023-10-13T12:19:20;11.73;;;5.60;;
25381;SDS011;16307;42.896;20.874;2023-10-13T12:22:10;16.73;;;6.28;;
25381;SDS011;16307;42.896;20.874;2023-10-13T12:25:02;13.23;;;5.15;;
25381;SDS011;16307;42.896;20.874;2023-10-13T12:28:10;13.52;;;4.75;;
25381;SDS011;16307;42.896;20.874;2023-10-13T12:31:07;12.65;;;5.63;;
25381;SDS011;16307;42.896;20.874;2023-10-13T12:33:56;11.95;;;6.10;;
25381;SDS011;16307;42.896;20.874;2023-10-13T12:36:51;12.23;;;5.60;;
25381;SDS011;16307;42.896;20.874;2023-10-13T12:39:51;14.90;;;5.72;;
25381;SDS011;16307;42.896;20.874;2023-10-13T12:42:56;12.00;;;5.38;;
25381;SDS011;16307;42.896;20.874;2023-10-13T12:46:01;11.52;;;4.40;;
25381;SDS011;16307;42.896;20.874;2023-10-13T12:49:05;11.90;;;3.83;;
25381;SDS011;16307;42.896;20.874;2023-10-13T12:52:12;11.45;;;4.53;;
25381;SDS011;16307;42.896;20.874;2023-10-13T12:55:17;16.88;;;4.50;;
25381;SDS011;16307;42.896;20.874;2023-10-13T12:58:06;15.50;;;5.60;;
25381;SDS011;16307;42.896;20.874;2023-10-13T13:00:53;11.93;;;5.72;;
25381;SDS011;16307;42.896;20.874;2023-10-13T13:03:52;18.70;;;6.43;;
25381;SDS011;16307;42.896;20.874;2023-10-13T13:06:42;17.95;;;6.97;;
25381;SDS011;16307;42.896;20.874;2023-10-13T13:09:28;14.98;;;7.15;;
25381;SDS011;16307;42.896;20.874;2023-10-13T13:12:14;14.30;;;5.70;;
25381;SDS011;16307;42.896;20.874;2023-10-13T13:15:00;14.05;;;4.72;;
25381;SDS011;16307;42.896;20.874;2023-10-13T13:17:53;11.77;;;4.68;;
25381;SDS011;16307;42.896;20.874;2023-10-13T13:20:39;18.25;;;7.15;;
25381;SDS011;16307;42.896;20.874;2023-10-13T13:23:28;20.98;;;5.80;;
25381;SDS011;16307;42.896;20.874;2023-10-13T13:26:16;19.17;;;9.43;;
25381;SDS011;16307;42.896;20.874;2023-10-13T13:29:03;13.13;;;6.68;;
25381;SDS011;16307;42.896;20.874;2023-10-13T13:31:50;15.23;;;7.10;;
25381;SDS011;16307;42.896;20.874;2023-10-13T13:34:37;18.58;;;7.93;;
25381;SDS011;16307;42.896;20.874;2023-10-13T13:37:23;12.20;;;5.03;;
25381;SDS011;16307;42.896;20.874;2023-10-13T13:40:13;19.70;;;9.20;;
25381;SDS011;16307;42.896;20.874;2023-10-13T13:43:00;15.38;;;7.07;;
25381;SDS011;16307;42.896;20.874;2023-10-13T13:45:46;18.33;;;9.27;;
25381;SDS011;16307;42.896;20.874;2023-10-13T13:48:33;14.15;;;5.47;;
25381;SDS011;16307;42.896;20.874;2023-10-13T13:51:20;20.73;;;6.88;;
25381;SDS011;16307;42.896;20.874;2023-10-13T13:54:12;7.35;;;4.10;;
25381;SDS011;16307;42.896;20.874;2023-10-13T13:57:00;17.05;;;4.40;;
25381;SDS011;16307;42.896;20.874;2023-10-13T13:59:48;12.63;;;4.00;;
25381;SDS011;16307;42.896;20.874;2023-10-13T14:02:35;9.80;;;4.35;;
25381;SDS011;16307;42.896;20.874;2023-10-13T14:05:21;14.18;;;3.85;;
25381;SDS011;16307;42.896;20.874;2023-10-13T14:08:08;15.90;;;5.75;;
25381;SDS011;16307;42.896;20.874;2023-10-13T14:10:58;18.52;;;4.93;;
25381;SDS011;16307;42.896;20.874;2023-10-13T14:13:59;9.00;;;3.70;;
25381;SDS011;16307;42.896;20.874;2023-10-13T14:16:49;16.83;;;4.68;;
25381;SDS011;16307;42.896;20.874;2023-10-13T14:19:36;17.73;;;9.82;;
25381;SDS011;16307;42.896;20.874;2023-10-13T14:22:27;13.80;;;6.72;;
25381;SDS011;16307;42.896;20.874;2023-10-13T14:25:13;14.90;;;6.20;;
25381;SDS011;16307;42.896;20.874;2023-10-13T14:28:00;17.88;;;6.60;;
25381;SDS011;16307;42.896;20.874;2023-10-13T14:30:47;14.43;;;6.25;;
25381;SDS011;16307;42.896;20.874;2023-10-13T14:33:33;13.90;;;5.30;;
25381;SDS011;16307;42.896;20.874;2023-10-13T14:36:20;13.27;;;5.57;;
25381;SDS011;16307;42.896;20.874;2023-10-13T14:39:06;11.57;;;4.68;;
25381;SDS011;16307;42.896;20.874;2023-10-13T14:41:56;9.63;;;4.72;;
25381;SDS011;16307;42.896;20.874;2023-10-13T14:44:43;15.10;;;5.00;;
25381;SDS011;16307;42.896;20.874;2023-10-13T14:47:29;15.25;;;4.75;;
25381;SDS011;16307;42.896;20.874;2023-10-13T14:50:15;11.45;;;5.63;;
25381;SDS011;16307;42.896;20.874;2023-10-13T14:55:54;17.25;;;7.32;;
25381;SDS011;16307;42.896;20.874;2023-10-13T14:58:41;25.58;;;7.40;;
25381;SDS011;16307;42.896;20.874;2023-10-13T15:01:28;15.85;;;6.80;;
25381;SDS011;16307;42.896;20.874;2023-10-13T15:04:14;22.80;;;9.25;;
25381;SDS011;16307;42.896;20.874;2023-10-13T15:07:01;21.52;;;10.18;;
25381;SDS011;16307;42.896;20.874;2023-10-13T15:09:52;22.13;;;7.35;;
25381;SDS011;16307;42.896;20.874;2023-10-13T15:12:42;23.92;;;6.97;;
25381;SDS011;16307;42.896;20.874;2023-10-13T15:15:32;25.13;;;9.85;;
25381;SDS011;16307;42.896;20.874;2023-10-13T15:18:20;35.75;;;13.32;;
25381;SDS011;16307;42.896;20.874;2023-10-13T15:21:19;32.17;;;13.65;;
25381;SDS011;16307;42.896;20.874;2023-10-13T15:24:06;57.67;;;23.33;;
25381;SDS011;16307;42.896;20.874;2023-10-13T15:27:11;25.90;;;12.65;;
25381;SDS011;16307;42.896;20.874;2023-10-13T15:29:58;38.95;;;15.32;;
25381;SDS011;16307;42.896;20.874;2023-10-13T15:32:45;55.25;;;24.42;;
25381;SDS011;16307;42.896;20.874;2023-10-13T15:35:40;40.90;;;19.45;;
25381;SDS011;16307;42.896;20.874;2023-10-13T15:38:37;29.70;;;14.48;;
25381;SDS011;16307;42.896;20.874;2023-10-13T15:41:33;30.95;;;15.73;;
25381;SDS011;16307;42.896;20.874;2023-10-13T15:44:19;32.65;;;14.38;;
25381;SDS011;16307;42.896;20.874;2023-10-13T15:47:11;30.75;;;14.48;;
25381;SDS011;16307;42.896;20.874;2023-10-13T15:50:19;31.05;;;12.82;;
25381;SDS011;16307;42.896;20.874;2023-10-13T15:53:08;33.20;;;13.23;;
25381;SDS011;16307;42.896;20.874;2023-10-13T15:55:59;23.93;;;9.37;;
25381;SDS011;16307;42.896;20.874;2023-10-13T15:58:52;26.02;;;9.07;;
25381;SDS011;16307;42.896;20.874;2023-10-13T16:01:39;21.05;;;8.07;;
25381;SDS011;16307;42.896;20.874;2023-10-13T16:04:26;22.15;;;7.25;;
25381;SDS011;16307;42.896;20.874;2023-10-13T16:07:13;22.23;;;7.80;;
25381;SDS011;16307;42.896;20.874;2023-10-13T16:09:59;26.73;;;7.10;;
25381;SDS011;16307;42.896;20.874;2023-10-13T16:12:47;32.40;;;11.15;;
25381;SDS011;16307;42.896;20.874;2023-10-13T16:15:35;27.30;;;10.38;;
25381;SDS011;16307;42.896;20.874;2023-10-13T16:21:12;48.20;;;17.50;;
25381;SDS011;16307;42.896;20.874;2023-10-13T16:24:00;52.55;;;20.52;;
25381;SDS011;16307;42.896;20.874;2023-10-13T16:26:47;49.53;;;23.23;;
25381;SDS011;16307;42.896;20.874;2023-10-13T16:29:42;38.95;;;15.48;;
25381;SDS011;16307;42.896;20.874;2023-10-13T16:32:28;28.23;;;11.18;;
25381;SDS011;16307;42.896;20.874;2023-10-13T16:35:16;23.42;;;10.13;;
25381;SDS011;16307;42.896;20.874;2023-10-13T16:38:03;36.47;;;9.13;;
25381;SDS011;16307;42.896;20.874;2023-10-13T16:40:52;34.97;;;11.65;;
25381;SDS011;16307;42.896;20.874;2023-10-13T16:43:39;28.05;;;11.77;;
25381;SDS011;16307;42.896;20.874;2023-10-13T16:46:26;25.95;;;10.93;;
25381;SDS011;16307;42.896;20.874;2023-10-13T16:49:12;33.05;;;13.00;;
25381;SDS011;16307;42.896;20.874;2023-10-13T16:51:59;22.17;;;9.73;;
25381;SDS011;16307;42.896;20.874;2023-10-13T16:54:46;22.10;;;9.40;;
25381;SDS011;16307;42.896;20.874;2023-10-13T16:57:32;24.40;;;10.48;;
25381;SDS011;16307;42.896;20.874;2023-10-13T17:00:18;26.63;;;9.30;;
25381;SDS011;16307;42.896;20.874;2023-10-13T17:03:11;21.27;;;9.00;;
25381;SDS011;16307;42.896;20.874;2023-10-13T17:05:58;24.42;;;9.10;;
25381;SDS011;16307;42.896;20.874;2023-10-13T17:08:47;19.20;;;7.80;;